createdAt,value
2018-01-28T00:00:28.139Z,22.70
2018-01-28T00:01:28.125Z,24.50
2018-01-28T00:02:28.119Z,25.00
2018-01-28T00:03:28.100Z,25.30
2018-01-28T00:04:28.088Z,26.00
2018-01-28T00:05:28.073Z,24.30
2018-01-28T00:06:28.067Z,24.60
2018-01-28T00:07:28.048Z,22.30
2018-01-28T00:08:28.046Z,27.80
2018-01-28T00:09:28.025Z,23.50
2018-01-28T00:10:28.012Z,23.40
2018-01-28T00:11:27.999Z,24.50
2018-01-28T00:12:27.989Z,24.50
2018-01-28T00:13:27.970Z,25.00
2018-01-28T00:14:27.958Z,23.50
2018-01-28T00:15:27.950Z,27.00
2018-01-28T00:16:27.936Z,25.00
2018-01-28T00:17:27.920Z,28.80
2018-01-28T00:18:27.910Z,24.20
2018-01-28T00:19:27.892Z,24.80
2018-01-28T00:20:27.880Z,24.80
2018-01-28T00:21:27.865Z,23.50
2018-01-28T00:22:27.860Z,22.50
2018-01-28T00:23:27.843Z,23.30
2018-01-28T00:24:27.825Z,23.90
2018-01-28T00:25:27.815Z,21.60
2018-01-28T00:26:27.801Z,21.70
2018-01-28T00:27:27.791Z,22.20
2018-01-28T00:28:27.782Z,26.50
2018-01-28T00:29:27.761Z,24.70
2018-01-28T00:30:27.749Z,23.50
2018-01-28T00:31:27.749Z,22.80
2018-01-28T00:32:27.738Z,23.30
2018-01-28T00:33:27.712Z,23.30
2018-01-28T00:34:27.697Z,23.10
2018-01-28T00:35:27.690Z,25.10
2018-01-28T00:36:27.682Z,22.90
2018-01-28T00:37:27.664Z,22.00
2018-01-28T00:38:27.643Z,24.10
2018-01-28T00:39:27.635Z,25.00
2018-01-28T00:40:27.622Z,22.90
2018-01-28T00:41:27.603Z,22.30
2018-01-28T00:42:27.592Z,21.60
2018-01-28T00:43:27.580Z,24.10
2018-01-28T00:44:27.572Z,21.30
2018-01-28T00:45:27.552Z,22.70
2018-01-28T00:46:27.542Z,24.20
2018-01-28T00:47:27.529Z,23.50
2018-01-28T00:48:27.512Z,23.80
2018-01-28T00:49:27.508Z,24.40
2018-01-28T00:50:27.492Z,24.20
2018-01-28T00:51:27.476Z,22.40
2018-01-28T00:52:27.461Z,26.00
2018-01-28T00:53:27.452Z,24.90
2018-01-28T00:54:27.435Z,25.80
2018-01-28T00:55:27.428Z,24.80
2018-01-28T00:56:27.443Z,24.30
2018-01-28T00:57:27.393Z,24.10
2018-01-28T00:58:27.384Z,26.60
2018-01-28T00:59:27.368Z,22.80
2018-01-28T01:00:27.356Z,25.50
2018-01-28T01:01:27.341Z,23.30
2018-01-28T01:02:27.334Z,24.60
2018-01-28T01:03:27.317Z,24.50
2018-01-28T01:04:27.304Z,22.80
2018-01-28T01:05:27.292Z,27.10
2018-01-28T01:06:27.281Z,24.60
2018-01-28T01:07:27.271Z,24.10
2018-01-28T01:08:27.253Z,24.90
2018-01-28T01:09:27.239Z,25.90
2018-01-28T01:10:27.232Z,23.90
2018-01-28T01:11:27.213Z,24.20
2018-01-28T01:12:27.209Z,22.50
2018-01-28T01:13:27.184Z,25.20
2018-01-28T01:14:27.169Z,28.90
2018-01-28T01:15:27.157Z,26.00
2018-01-28T01:16:27.145Z,25.60
2018-01-28T01:17:27.175Z,27.10
2018-01-28T01:18:27.123Z,24.20
2018-01-28T01:19:27.104Z,26.60
2018-01-28T01:20:27.094Z,24.60
2018-01-28T01:21:27.079Z,26.10
2018-01-28T01:22:27.074Z,24.90
2018-01-28T01:23:27.054Z,25.90
2018-01-28T01:24:27.042Z,25.30
2018-01-28T01:25:27.025Z,27.10
2018-01-28T01:26:27.015Z,25.60
2018-01-28T01:27:27.001Z,26.70
2018-01-28T01:28:26.990Z,27.50
2018-01-28T01:29:26.978Z,25.70
2018-01-28T01:30:26.966Z,26.50
2018-01-28T01:31:26.949Z,25.20
2018-01-28T01:32:26.936Z,25.60
2018-01-28T01:33:26.924Z,26.40
2018-01-28T01:34:26.911Z,25.30
2018-01-28T01:35:26.901Z,25.70
2018-01-28T01:36:26.882Z,25.80
2018-01-28T01:37:26.867Z,25.70
2018-01-28T01:38:26.857Z,27.00
2018-01-28T01:39:26.841Z,25.20
2018-01-28T01:40:26.829Z,25.20
2018-01-28T01:41:26.821Z,24.20
2018-01-28T01:42:26.809Z,26.00
2018-01-28T01:43:26.789Z,27.20
2018-01-28T01:44:26.776Z,26.80
2018-01-28T01:45:26.763Z,25.80
2018-01-28T01:46:26.750Z,28.00
2018-01-28T01:47:26.738Z,26.70
2018-01-28T01:48:26.733Z,27.10
2018-01-28T01:49:26.717Z,26.60
2018-01-28T01:50:26.703Z,26.70
2018-01-28T01:51:26.684Z,26.60
2018-01-28T01:52:26.672Z,26.30
2018-01-28T01:53:26.657Z,24.30
2018-01-28T01:54:26.650Z,27.90
2018-01-28T01:55:26.640Z,26.70
2018-01-28T01:56:26.620Z,26.00
2018-01-28T01:57:26.613Z,26.90
2018-01-28T01:58:26.593Z,24.70
2018-01-28T01:59:26.582Z,24.40
2018-01-28T02:00:26.567Z,24.10
2018-01-28T02:01:26.564Z,23.90
2018-01-28T02:02:26.546Z,26.10
2018-01-28T02:03:26.532Z,23.80
2018-01-28T02:04:26.513Z,24.50
2018-01-28T02:05:26.502Z,25.20
2018-01-28T02:06:26.485Z,23.80
2018-01-28T02:07:26.479Z,23.70
2018-01-28T02:08:26.466Z,22.80
2018-01-28T02:09:26.447Z,24.50
2018-01-28T02:10:26.435Z,23.10
2018-01-28T02:11:26.428Z,24.60
2018-01-28T02:12:26.409Z,21.80
2018-01-28T02:13:26.392Z,24.00
2018-01-28T02:14:26.381Z,24.20
2018-01-28T02:15:26.370Z,24.50
2018-01-28T02:16:26.356Z,26.20
2018-01-28T02:17:26.347Z,23.00
2018-01-28T02:18:26.327Z,22.70
2018-01-28T02:19:26.321Z,22.50
2018-01-28T02:20:26.303Z,22.60
2018-01-28T02:21:26.305Z,23.60
2018-01-28T02:22:26.281Z,20.00
2018-01-28T02:23:26.262Z,19.20
2018-01-28T02:24:26.249Z,20.10
2018-01-28T02:25:26.234Z,20.50
2018-01-28T02:26:26.225Z,24.50
2018-01-28T02:27:26.209Z,19.50
2018-01-28T02:28:26.197Z,19.20
2018-01-28T02:29:26.186Z,20.80
2018-01-28T02:30:26.170Z,19.00
2018-01-28T02:31:26.162Z,18.80
2018-01-28T02:32:26.142Z,19.70
2018-01-28T02:33:26.128Z,19.60
2018-01-28T02:34:26.115Z,21.70
2018-01-28T02:35:26.109Z,18.40
2018-01-28T02:36:26.091Z,17.50
2018-01-28T02:37:26.075Z,19.60
2018-01-28T02:38:26.063Z,18.90
2018-01-28T02:39:26.060Z,19.60
2018-01-28T02:40:26.037Z,17.40
2018-01-28T02:41:26.026Z,18.50
2018-01-28T02:42:26.011Z,19.00
2018-01-28T02:43:25.997Z,18.90
2018-01-28T02:44:25.995Z,20.30
2018-01-28T02:45:25.970Z,19.20
2018-01-28T02:46:25.966Z,18.60
2018-01-28T02:47:25.945Z,19.40
2018-01-28T02:48:25.933Z,19.00
2018-01-28T02:49:25.924Z,19.90
2018-01-28T02:50:25.903Z,18.50
2018-01-28T02:51:25.897Z,17.90
2018-01-28T02:52:25.879Z,18.40
2018-01-28T02:53:25.863Z,17.30
2018-01-28T02:54:25.852Z,19.00
2018-01-28T02:55:25.836Z,17.90
2018-01-28T02:56:25.824Z,18.30
2018-01-28T02:57:25.815Z,19.10
2018-01-28T02:58:25.796Z,16.60
2018-01-28T02:59:25.789Z,15.20
2018-01-28T03:00:25.777Z,16.40
2018-01-28T03:01:25.759Z,15.60
2018-01-28T03:02:25.743Z,16.20
2018-01-28T03:03:25.731Z,16.40
2018-01-28T03:04:25.718Z,16.50
2018-01-28T03:05:25.704Z,14.70
2018-01-28T03:06:25.693Z,15.10
2018-01-28T03:07:25.689Z,14.90
2018-01-28T03:08:25.664Z,15.30
2018-01-28T03:09:25.651Z,14.00
2018-01-28T03:10:25.641Z,14.80
2018-01-28T03:11:25.628Z,13.60
2018-01-28T03:12:25.610Z,14.70
2018-01-28T03:13:25.601Z,13.20
2018-01-28T03:14:25.584Z,14.90
2018-01-28T03:15:25.572Z,15.10
2018-01-28T03:16:25.600Z,15.20
2018-01-28T03:17:25.547Z,16.00
2018-01-28T03:18:25.545Z,14.00
2018-01-28T03:19:25.519Z,13.30
2018-01-28T03:20:25.510Z,12.90
2018-01-28T03:21:25.494Z,12.80
2018-01-28T03:22:25.526Z,12.10
2018-01-28T03:23:25.463Z,12.70
2018-01-28T03:24:25.449Z,12.20
2018-01-28T03:25:25.437Z,12.70
2018-01-28T03:26:25.429Z,12.40
2018-01-28T03:27:25.413Z,12.50
2018-01-28T03:28:25.399Z,13.20
2018-01-28T03:29:25.392Z,12.80
2018-01-28T03:30:25.371Z,12.90
2018-01-28T03:31:25.362Z,13.40
2018-01-28T03:32:25.345Z,12.70
2018-01-28T03:33:25.328Z,12.80
2018-01-28T03:34:25.325Z,12.90
2018-01-28T03:35:25.309Z,12.40
2018-01-28T03:36:25.291Z,12.80
2018-01-28T03:37:25.285Z,12.90
2018-01-28T03:38:25.268Z,12.70
2018-01-28T03:39:25.253Z,12.60
2018-01-28T03:40:25.242Z,13.20
2018-01-28T03:41:25.222Z,11.80
2018-01-28T03:42:25.209Z,12.20
2018-01-28T03:43:25.201Z,11.70
2018-01-28T03:44:25.188Z,14.10
2018-01-28T03:45:25.167Z,11.80
2018-01-28T03:46:25.160Z,11.30
2018-01-28T03:47:25.143Z,11.20
2018-01-28T03:48:25.128Z,10.70
2018-01-28T03:49:25.114Z,11.50
2018-01-28T03:50:25.104Z,11.70
2018-01-28T03:51:25.088Z,12.50
2018-01-28T03:52:25.076Z,11.20
2018-01-28T03:53:25.069Z,11.40
2018-01-28T03:54:25.054Z,13.00
2018-01-28T03:55:25.033Z,11.80
2018-01-28T03:56:25.026Z,13.30
2018-01-28T03:57:25.012Z,11.60
2018-01-28T03:58:24.994Z,12.00
2018-01-28T03:59:24.980Z,11.40
2018-01-28T04:00:24.966Z,11.70
2018-01-28T04:01:24.952Z,11.10
2018-01-28T04:02:24.940Z,11.30
2018-01-28T04:03:24.926Z,11.90
2018-01-28T04:04:24.918Z,12.30
2018-01-28T04:05:24.905Z,12.30
2018-01-28T04:06:24.887Z,12.10
2018-01-28T04:07:24.875Z,12.10
2018-01-28T04:08:24.859Z,11.00
2018-01-28T04:09:24.847Z,12.20
2018-01-28T04:10:24.832Z,11.70
2018-01-28T04:11:24.816Z,11.70
2018-01-28T04:12:24.805Z,11.70
2018-01-28T04:13:24.799Z,11.40
2018-01-28T04:14:24.776Z,12.30
2018-01-28T04:15:24.764Z,11.00
2018-01-28T04:16:24.757Z,12.20
2018-01-28T04:17:24.742Z,10.50
2018-01-28T04:18:24.734Z,10.50
2018-01-28T04:19:24.715Z,10.10
2018-01-28T04:20:24.697Z,10.10
2018-01-28T04:21:24.681Z,10.80
2018-01-28T04:22:24.672Z,10.30
2018-01-28T04:23:24.654Z,10.70
2018-01-28T04:24:24.645Z,10.50
2018-01-28T04:25:24.627Z,10.30
2018-01-28T04:26:24.623Z,11.40
2018-01-28T04:27:24.602Z,11.30
2018-01-28T04:28:24.586Z,10.20
2018-01-28T04:29:24.572Z,11.30
2018-01-28T04:30:24.559Z,11.20
2018-01-28T04:31:24.546Z,11.20
2018-01-28T04:32:24.540Z,11.10
2018-01-28T04:33:24.518Z,11.40
2018-01-28T04:34:24.510Z,10.00
2018-01-28T04:35:24.491Z,10.70
2018-01-28T04:36:24.484Z,11.30
2018-01-28T04:37:24.465Z,11.80
2018-01-28T04:38:24.450Z,12.40
2018-01-28T04:39:24.441Z,10.90
2018-01-28T04:40:24.425Z,10.10
2018-01-28T04:41:24.409Z,10.50
2018-01-28T04:42:24.395Z,10.00
2018-01-28T04:43:24.384Z,11.30
2018-01-28T04:44:24.375Z,11.80
2018-01-28T04:45:24.355Z,11.20
2018-01-28T04:46:24.341Z,10.30
2018-01-28T04:47:24.326Z,11.00
2018-01-28T04:48:24.320Z,11.40
2018-01-28T04:49:24.303Z,9.70
2018-01-28T04:50:24.286Z,10.30
2018-01-28T04:51:24.281Z,10.00
2018-01-28T04:52:24.261Z,10.60
2018-01-28T04:53:24.247Z,9.80
2018-01-28T04:54:24.237Z,10.30
2018-01-28T04:55:24.219Z,10.30
2018-01-28T04:56:24.205Z,10.20
2018-01-28T04:57:24.197Z,9.50
2018-01-28T04:58:24.183Z,10.00
2018-01-28T04:59:24.163Z,9.70
2018-01-28T05:00:24.150Z,9.30
2018-01-28T05:01:24.142Z,10.40
2018-01-28T05:02:24.121Z,9.40
2018-01-28T05:03:24.115Z,10.00
2018-01-28T05:04:24.095Z,9.40
2018-01-28T05:05:24.080Z,9.40
2018-01-28T05:06:24.070Z,11.90
2018-01-28T05:07:24.054Z,9.60
2018-01-28T05:08:24.041Z,9.90
2018-01-28T05:09:24.025Z,10.40
2018-01-28T05:10:24.011Z,9.50
2018-01-28T05:11:23.999Z,9.70
2018-01-28T05:12:23.989Z,9.20
2018-01-28T05:13:23.978Z,10.40
2018-01-28T05:14:23.962Z,10.50
2018-01-28T05:15:23.942Z,9.90
2018-01-28T05:16:23.931Z,10.00
2018-01-28T05:17:23.926Z,9.80
2018-01-28T05:18:23.904Z,10.20
2018-01-28T05:19:23.888Z,10.60
2018-01-28T05:20:23.877Z,10.10
2018-01-28T05:21:23.867Z,10.10
2018-01-28T05:22:23.846Z,9.30
2018-01-28T05:23:23.838Z,9.80
2018-01-28T05:24:23.822Z,11.00
2018-01-28T05:25:23.803Z,10.70
2018-01-28T05:26:23.795Z,10.00
2018-01-28T05:27:23.780Z,10.60
2018-01-28T05:28:23.765Z,9.90
2018-01-28T05:29:23.755Z,10.00
2018-01-28T05:30:23.742Z,9.90
2018-01-28T05:31:23.722Z,10.20
2018-01-28T05:32:23.711Z,10.20
2018-01-28T05:33:23.694Z,10.10
2018-01-28T05:34:23.685Z,9.70
2018-01-28T05:35:23.674Z,10.50
2018-01-28T05:36:23.654Z,10.40
2018-01-28T05:37:23.653Z,10.20
2018-01-28T05:38:23.627Z,9.90
2018-01-28T05:39:23.611Z,8.80
2018-01-28T05:40:23.600Z,14.10
2018-01-28T05:41:23.585Z,9.40
2018-01-28T05:42:23.572Z,9.20
2018-01-28T05:43:23.562Z,9.70
2018-01-28T05:44:23.551Z,9.30
2018-01-28T05:45:23.534Z,9.40
2018-01-28T05:46:23.521Z,10.50
2018-01-28T05:47:23.503Z,9.60
2018-01-28T05:48:23.488Z,9.30
2018-01-28T05:49:23.481Z,10.00
2018-01-28T05:50:23.461Z,9.30
2018-01-28T05:51:23.449Z,9.10
2018-01-28T05:52:23.434Z,10.10
2018-01-28T05:53:23.427Z,10.30
2018-01-28T05:54:23.410Z,10.60
2018-01-28T05:55:23.401Z,9.10
2018-01-28T05:56:23.380Z,10.00
2018-01-28T05:57:23.374Z,9.80
2018-01-28T05:58:23.355Z,9.40
2018-01-28T05:59:23.344Z,10.10
2018-01-28T06:00:23.324Z,9.70
2018-01-28T06:01:23.315Z,9.20
2018-01-28T06:02:23.296Z,9.40
2018-01-28T06:03:23.283Z,9.50
2018-01-28T06:04:23.270Z,9.10
2018-01-28T06:05:23.256Z,10.50
2018-01-28T06:06:23.252Z,9.00
2018-01-28T06:07:23.229Z,10.70
2018-01-28T06:08:23.220Z,9.80
2018-01-28T06:09:23.206Z,9.40
2018-01-28T06:10:23.195Z,9.20
2018-01-28T06:11:23.184Z,9.30
2018-01-28T06:12:23.159Z,9.20
2018-01-28T06:13:23.151Z,8.60
2018-01-28T06:14:23.134Z,8.40
2018-01-28T06:15:23.120Z,8.90
2018-01-28T06:16:23.104Z,9.70
2018-01-28T06:17:23.096Z,9.50
2018-01-28T06:18:23.076Z,9.90
2018-01-28T06:19:23.069Z,10.00
2018-01-28T06:20:23.061Z,9.10
2018-01-28T06:21:23.038Z,8.80
2018-01-28T06:22:23.025Z,9.60
2018-01-28T06:23:23.012Z,8.90
2018-01-28T06:24:22.995Z,9.30
2018-01-28T06:25:22.985Z,8.30
2018-01-28T06:26:22.978Z,9.20
2018-01-28T06:27:22.953Z,10.10
2018-01-28T06:28:22.940Z,9.50
2018-01-28T06:29:22.925Z,8.80
2018-01-28T06:30:22.912Z,9.70
2018-01-28T06:31:22.899Z,10.20
2018-01-28T06:32:22.897Z,10.50
2018-01-28T06:33:22.894Z,10.00
2018-01-28T06:34:22.872Z,10.40
2018-01-28T06:35:22.859Z,10.00
2018-01-28T06:36:22.843Z,10.50
2018-01-28T06:37:22.822Z,11.20
2018-01-28T06:38:22.807Z,10.20
2018-01-28T06:39:22.797Z,10.20
2018-01-28T06:40:22.784Z,10.60
2018-01-28T06:41:22.788Z,10.80
2018-01-28T06:42:22.761Z,10.90
2018-01-28T06:43:22.746Z,11.10
2018-01-28T06:44:22.731Z,10.40
2018-01-28T06:45:22.709Z,10.70
2018-01-28T06:46:22.697Z,11.50
2018-01-28T06:47:22.689Z,9.90
2018-01-28T06:48:22.672Z,11.50
2018-01-28T06:49:22.650Z,10.80
2018-01-28T06:50:22.638Z,12.40
2018-01-28T06:51:22.628Z,12.30
2018-01-28T06:52:22.610Z,12.30
2018-01-28T06:53:22.599Z,13.40
2018-01-28T06:54:22.584Z,12.80
2018-01-28T06:55:22.570Z,14.20
2018-01-28T06:56:22.554Z,15.40
2018-01-28T06:57:22.547Z,15.30
2018-01-28T06:58:22.532Z,14.10
2018-01-28T06:59:22.514Z,14.70
2018-01-28T07:00:22.508Z,14.90
2018-01-28T07:01:22.484Z,15.40
2018-01-28T07:02:22.471Z,13.60
2018-01-28T07:03:22.458Z,14.70
2018-01-28T07:04:22.442Z,15.10
2018-01-28T07:05:22.428Z,14.50
2018-01-28T07:06:22.422Z,14.70
2018-01-28T07:07:22.412Z,14.90
2018-01-28T07:08:22.387Z,15.50
2018-01-28T07:09:22.379Z,16.00
2018-01-28T07:10:22.371Z,16.20
2018-01-28T07:11:22.355Z,16.50
2018-01-28T07:12:22.330Z,16.10
2018-01-28T07:13:22.318Z,16.40
2018-01-28T07:14:22.305Z,16.40
2018-01-28T07:15:22.298Z,16.80
2018-01-28T07:16:22.277Z,16.70
2018-01-28T07:17:22.262Z,16.10
2018-01-28T07:18:22.256Z,18.30
2018-01-28T07:19:22.243Z,17.60
2018-01-28T07:20:22.228Z,18.30
2018-01-28T07:21:22.215Z,18.10
2018-01-28T07:22:22.195Z,17.60
2018-01-28T07:23:22.181Z,17.20
2018-01-28T07:24:22.167Z,17.00
2018-01-28T07:25:22.158Z,17.30
2018-01-28T07:26:22.144Z,18.10
2018-01-28T07:27:22.134Z,17.50
2018-01-28T07:28:22.121Z,16.20
2018-01-28T07:29:22.099Z,16.40
2018-01-28T07:30:22.085Z,17.90
2018-01-28T07:31:22.077Z,16.40
2018-01-28T07:32:22.063Z,17.30
2018-01-28T07:33:22.046Z,16.30
2018-01-28T07:34:22.036Z,15.90
2018-01-28T07:35:22.023Z,16.20
2018-01-28T07:36:22.010Z,16.20
2018-01-28T07:37:21.991Z,16.10
2018-01-28T07:38:21.975Z,15.90
2018-01-28T07:39:21.962Z,15.70
2018-01-28T07:40:21.950Z,15.00
2018-01-28T07:41:21.935Z,15.70
2018-01-28T07:42:21.922Z,16.10
2018-01-28T07:43:21.914Z,17.30
2018-01-28T07:44:21.901Z,16.40
2018-01-28T07:45:21.882Z,15.20
2018-01-28T07:46:21.868Z,15.90
2018-01-28T07:47:21.860Z,16.70
2018-01-28T07:48:21.841Z,18.60
2018-01-28T07:49:21.835Z,17.40
2018-01-28T07:50:21.814Z,17.60
2018-01-28T07:51:21.806Z,18.00
2018-01-28T07:52:21.792Z,18.00
2018-01-28T07:53:21.778Z,17.70
2018-01-28T07:54:21.763Z,17.30
2018-01-28T07:55:21.748Z,17.90
2018-01-28T07:56:21.733Z,17.50
2018-01-28T07:57:21.724Z,16.30
2018-01-28T07:58:21.712Z,17.10
2018-01-28T07:59:21.693Z,18.10
2018-01-28T08:00:21.680Z,18.70
2018-01-28T08:01:21.666Z,18.90
2018-01-28T08:02:21.654Z,18.10
2018-01-28T08:03:21.638Z,19.00
2018-01-28T08:04:21.626Z,19.20
2018-01-28T08:05:21.612Z,19.40
2018-01-28T08:06:21.601Z,19.60
2018-01-28T08:07:21.585Z,19.70
2018-01-28T08:08:21.574Z,19.70
2018-01-28T08:09:21.559Z,19.40
2018-01-28T08:10:21.545Z,20.10
2018-01-28T08:11:21.532Z,19.90
2018-01-28T08:12:21.519Z,19.80
2018-01-28T08:13:21.511Z,19.40
2018-01-28T08:14:21.502Z,20.40
2018-01-28T08:15:21.480Z,18.90
2018-01-28T08:16:21.470Z,20.40
2018-01-28T08:17:21.451Z,20.60
2018-01-28T08:18:21.436Z,19.90
2018-01-28T08:19:21.479Z,20.80
2018-01-28T08:20:21.410Z,19.70
2018-01-28T08:21:21.405Z,20.20
2018-01-28T08:22:21.384Z,19.30
2018-01-28T08:23:21.371Z,20.60
2018-01-28T08:24:21.356Z,21.40
2018-01-28T08:25:21.349Z,22.00
2018-01-28T08:26:21.336Z,19.60
2018-01-28T08:27:21.321Z,19.80
2018-01-28T08:28:21.303Z,19.40
2018-01-28T08:29:21.294Z,20.40
2018-01-28T08:30:21.288Z,20.80
2018-01-28T08:31:21.264Z,21.50
2018-01-28T08:32:21.257Z,20.80
2018-01-28T08:33:21.239Z,19.90
2018-01-28T08:34:21.227Z,20.70
2018-01-28T08:35:21.213Z,19.50
2018-01-28T08:36:21.219Z,19.80
2018-01-28T08:37:21.187Z,20.70
2018-01-28T08:38:21.175Z,19.80
2018-01-28T08:39:21.166Z,19.60
2018-01-28T08:40:21.148Z,20.10
2018-01-28T08:41:21.137Z,19.90
2018-01-28T08:42:21.119Z,19.10
2018-01-28T08:43:21.107Z,19.80
2018-01-28T08:44:21.100Z,19.90
2018-01-28T08:45:21.085Z,18.80
2018-01-28T08:46:21.073Z,19.20
2018-01-28T08:47:21.060Z,20.20
2018-01-28T08:48:21.048Z,19.00
2018-01-28T08:49:21.031Z,18.30
2018-01-28T08:50:21.016Z,18.80
2018-01-28T08:51:21.005Z,20.30
2018-01-28T08:52:20.992Z,19.90
2018-01-28T08:53:20.984Z,20.00
2018-01-28T08:54:20.965Z,19.80
2018-01-28T08:55:20.960Z,19.40
2018-01-28T08:56:20.941Z,20.40
2018-01-28T08:57:20.928Z,18.60
2018-01-28T08:58:20.912Z,20.00
2018-01-28T08:59:20.898Z,19.70
2018-01-28T09:00:20.885Z,19.90
2018-01-28T09:01:20.875Z,20.60
2018-01-28T09:02:20.863Z,20.40
2018-01-28T09:03:20.853Z,20.60
2018-01-28T09:04:20.835Z,20.50
2018-01-28T09:05:20.829Z,19.60
2018-01-28T09:06:20.814Z,20.70
2018-01-28T09:07:20.802Z,19.40
2018-01-28T09:08:20.783Z,20.00
2018-01-28T09:09:20.770Z,19.40
2018-01-28T09:10:20.763Z,21.40
2018-01-28T09:11:20.751Z,19.70
2018-01-28T09:12:20.733Z,20.50
2018-01-28T09:13:20.725Z,19.10
2018-01-28T09:14:20.707Z,20.50
2018-01-28T09:15:20.694Z,21.20
2018-01-28T09:16:20.682Z,20.80
2018-01-28T09:17:20.676Z,20.90
2018-01-28T09:18:20.660Z,20.30
2018-01-28T09:19:20.646Z,22.50
2018-01-28T09:20:20.633Z,20.60
2018-01-28T09:21:20.621Z,21.40
2018-01-28T09:22:20.609Z,20.60
2018-01-28T09:23:20.596Z,21.40
2018-01-28T09:24:20.587Z,20.50
2018-01-28T09:25:20.576Z,20.50
2018-01-28T09:26:20.560Z,20.30
2018-01-28T09:27:20.549Z,20.10
2018-01-28T09:28:20.536Z,20.80
2018-01-28T09:29:20.527Z,21.30
2018-01-28T09:30:20.509Z,21.60
2018-01-28T09:31:20.500Z,20.30
2018-01-28T09:32:20.485Z,21.50
2018-01-28T09:33:20.474Z,20.80
2018-01-28T09:34:20.460Z,21.90
2018-01-28T09:35:20.449Z,22.10
2018-01-28T09:36:20.437Z,21.40
2018-01-28T09:37:20.424Z,23.40
2018-01-28T09:38:20.414Z,20.60
2018-01-28T09:39:20.401Z,21.40
2018-01-28T09:40:20.391Z,20.50
2018-01-28T09:41:20.382Z,20.90
2018-01-28T09:42:20.363Z,22.40
2018-01-28T09:43:20.357Z,22.20
2018-01-28T09:44:20.344Z,20.20
2018-01-28T09:45:20.325Z,19.90
2018-01-28T09:46:20.315Z,20.70
2018-01-28T09:47:20.304Z,20.40
2018-01-28T09:48:20.295Z,20.80
2018-01-28T09:49:20.280Z,21.40
2018-01-28T09:50:20.265Z,20.80
2018-01-28T09:51:20.259Z,20.40
2018-01-28T09:52:20.245Z,20.10
2018-01-28T09:53:20.238Z,19.70
2018-01-28T09:54:20.218Z,20.10
2018-01-28T09:55:20.208Z,22.10
2018-01-28T09:56:20.198Z,19.30
2018-01-28T09:57:20.186Z,19.20
2018-01-28T09:58:20.172Z,19.50
2018-01-28T09:59:20.162Z,20.10
2018-01-28T10:00:20.148Z,19.50
2018-01-28T10:01:20.141Z,19.70
2018-01-28T10:02:20.131Z,19.60
2018-01-28T10:03:20.114Z,18.90
2018-01-28T10:04:20.103Z,19.60
2018-01-28T10:05:20.088Z,20.10
2018-01-28T10:06:20.080Z,20.10
2018-01-28T10:07:20.065Z,21.60
2018-01-28T10:08:20.054Z,20.00
2018-01-28T10:09:20.050Z,19.10
2018-01-28T10:10:20.031Z,19.00
2018-01-28T10:11:20.018Z,19.20
2018-01-28T10:12:20.014Z,18.70
2018-01-28T10:13:19.998Z,18.90
2018-01-28T10:14:19.987Z,18.50
2018-01-28T10:15:19.972Z,18.60
2018-01-28T10:16:19.960Z,17.40
2018-01-28T10:17:19.961Z,18.80
2018-01-28T10:18:19.936Z,18.60
2018-01-28T10:19:19.928Z,19.50
2018-01-28T10:20:19.922Z,18.90
2018-01-28T10:21:19.903Z,17.30
2018-01-28T10:22:19.929Z,18.60
2018-01-28T10:23:19.879Z,18.20
2018-01-28T10:24:19.869Z,19.40
2018-01-28T10:25:19.854Z,17.70
2018-01-28T10:26:19.842Z,18.40
2018-01-28T10:27:19.836Z,19.20
2018-01-28T10:28:19.821Z,18.00
2018-01-28T10:29:19.807Z,17.20
2018-01-28T10:30:19.795Z,18.20
2018-01-28T10:31:19.785Z,18.70
2018-01-28T10:32:19.780Z,19.10
2018-01-28T10:33:19.769Z,18.70
2018-01-28T10:34:19.751Z,17.60
2018-01-28T10:35:19.740Z,19.90
2018-01-28T10:36:19.734Z,18.10
2018-01-28T10:37:19.724Z,18.60
2018-01-28T10:38:19.709Z,19.50
2018-01-28T10:39:19.694Z,19.50
2018-01-28T10:40:19.681Z,18.90
2018-01-28T10:41:19.673Z,18.50
2018-01-28T10:42:19.659Z,18.10
2018-01-28T10:43:19.661Z,18.30
2018-01-28T10:44:19.642Z,18.60
2018-01-28T10:45:19.623Z,19.20
2018-01-28T10:46:19.613Z,16.70
2018-01-28T10:47:19.601Z,19.30
2018-01-28T10:48:19.590Z,18.70
2018-01-28T10:49:19.582Z,18.50
2018-01-28T10:50:19.567Z,17.70
2018-01-28T10:51:19.559Z,18.90
2018-01-28T10:52:19.551Z,16.80
2018-01-28T10:53:19.537Z,18.30
2018-01-28T10:54:19.535Z,18.80
2018-01-28T10:55:19.518Z,19.30
2018-01-28T10:56:19.503Z,18.10
2018-01-28T10:57:19.493Z,18.80
2018-01-28T10:58:19.485Z,18.50
2018-01-28T10:59:19.471Z,19.10
2018-01-28T11:00:19.469Z,19.20
2018-01-28T11:01:19.447Z,17.80
2018-01-28T11:02:19.437Z,18.10
2018-01-28T11:03:19.575Z,18.80
2018-01-28T11:04:19.434Z,18.00
2018-01-28T11:05:19.410Z,18.00
2018-01-28T11:06:19.395Z,18.20
2018-01-28T11:07:19.388Z,18.70
2018-01-28T11:08:19.380Z,18.60
2018-01-28T11:09:19.363Z,18.60
2018-01-28T11:10:19.350Z,18.50
2018-01-28T11:11:19.340Z,17.60
2018-01-28T11:12:19.336Z,18.50
2018-01-28T11:13:19.317Z,18.30
2018-01-28T11:14:19.313Z,19.20
2018-01-28T11:15:19.305Z,17.70
2018-01-28T11:16:19.293Z,18.70
2018-01-28T11:17:19.282Z,18.40
2018-01-28T11:18:19.264Z,18.40
2018-01-28T11:19:19.263Z,18.90
2018-01-28T11:20:19.243Z,17.40
2018-01-28T11:21:19.231Z,18.40
2018-01-28T11:22:19.223Z,18.70
2018-01-28T11:23:19.216Z,18.50
2018-01-28T11:24:19.202Z,19.00
2018-01-28T11:25:19.199Z,19.00
2018-01-28T11:26:19.184Z,20.40
2018-01-28T11:27:19.167Z,19.10
2018-01-28T11:28:19.156Z,18.50
2018-01-28T11:29:19.154Z,19.00
2018-01-28T11:30:19.133Z,18.60
2018-01-28T11:31:19.125Z,18.80
2018-01-28T11:32:19.118Z,18.80
2018-01-28T11:33:19.101Z,19.10
2018-01-28T11:34:19.092Z,19.20
2018-01-28T11:35:19.080Z,18.90
2018-01-28T11:36:19.074Z,19.70
2018-01-28T11:37:19.061Z,18.90
2018-01-28T11:38:19.054Z,19.80
2018-01-28T11:39:19.050Z,19.30
2018-01-28T11:40:19.041Z,19.90
2018-01-28T11:41:19.028Z,19.90
2018-01-28T11:42:19.008Z,21.70
2018-01-28T11:43:18.998Z,20.10
2018-01-28T11:44:18.990Z,19.30
2018-01-28T11:45:18.987Z,20.60
2018-01-28T11:46:18.974Z,20.60
2018-01-28T11:47:18.956Z,21.00
2018-01-28T11:48:18.942Z,21.90
2018-01-28T11:49:18.930Z,20.30
2018-01-28T11:50:18.923Z,20.60
2018-01-28T11:51:18.926Z,20.90
2018-01-28T11:52:18.902Z,19.40
2018-01-28T11:53:18.889Z,19.30
2018-01-28T11:54:18.901Z,20.30
2018-01-28T11:55:18.876Z,20.40
2018-01-28T11:56:18.863Z,20.00
2018-01-28T11:57:18.852Z,20.70
2018-01-28T11:58:18.835Z,20.60
2018-01-28T11:59:18.827Z,18.90
2018-01-28T12:00:18.823Z,20.80
2018-01-28T12:01:18.815Z,20.70
2018-01-28T12:02:18.806Z,19.70
2018-01-28T12:03:18.782Z,19.20
2018-01-28T12:04:18.781Z,18.90
2018-01-28T12:05:18.767Z,19.90
2018-01-28T12:06:18.759Z,19.80
2018-01-28T12:07:18.746Z,19.80
2018-01-28T12:08:18.736Z,19.80
2018-01-28T12:09:18.717Z,19.80
2018-01-28T12:10:18.709Z,20.50
2018-01-28T12:11:18.699Z,20.20
2018-01-28T12:12:18.688Z,19.20
2018-01-28T12:13:18.677Z,20.00
2018-01-28T12:14:18.672Z,18.80
2018-01-28T12:15:18.659Z,19.90
2018-01-28T12:16:18.646Z,20.50
2018-01-28T12:17:18.634Z,19.70
2018-01-28T12:18:18.625Z,20.20
2018-01-28T12:19:18.615Z,20.00
2018-01-28T12:20:18.605Z,19.70
2018-01-28T12:21:18.592Z,18.20
2018-01-28T12:22:18.583Z,18.90
2018-01-28T12:23:18.578Z,19.00
2018-01-28T12:24:18.563Z,18.80
2018-01-28T12:25:18.554Z,19.90
2018-01-28T12:26:18.545Z,18.90
2018-01-28T12:27:18.534Z,17.70
2018-01-28T12:28:18.522Z,19.20
2018-01-28T12:29:18.510Z,20.00
2018-01-28T12:30:18.510Z,18.00
2018-01-28T12:31:18.498Z,19.00
2018-01-28T12:32:18.482Z,18.30
2018-01-28T12:33:18.475Z,19.40
2018-01-28T12:34:18.459Z,19.60
2018-01-28T12:35:18.455Z,19.20
2018-01-28T12:36:18.440Z,19.10
2018-01-28T12:37:18.434Z,18.60
2018-01-28T12:38:18.421Z,17.90
2018-01-28T12:39:18.413Z,17.80
2018-01-28T12:40:18.409Z,17.10
2018-01-28T12:41:18.393Z,18.00
2018-01-28T12:42:18.384Z,17.10
2018-01-28T12:43:18.369Z,16.50
2018-01-28T12:44:18.357Z,17.50
2018-01-28T12:45:18.345Z,17.30
2018-01-28T12:46:18.334Z,16.60
2018-01-28T12:47:18.332Z,16.80
2018-01-28T12:48:18.314Z,17.20
2018-01-28T12:49:18.304Z,16.40
2018-01-28T12:50:18.294Z,17.10
2018-01-28T12:51:18.284Z,17.00
2018-01-28T12:52:18.273Z,17.20
2018-01-28T12:53:18.264Z,17.50
2018-01-28T12:54:18.252Z,15.90